Time;durP1;ratioP1;P1;durP2;ratioP2;P2;SDS_P1;SDS_P2;PMS_P1;PMS_P2;Temp;Humidity;BMP_temperature;BMP_pressure;BME280_temperature;BME280_humidity;BME280_pressure;Samples;Min_cycle;Max_cycle;Signal;HPM_P1;HPM_P2
2022/08/23 00:01:38;;;;;;;53.03;19.15;;;;;;;;;;5020956;28;20048;-57
2022/08/23 00:04:06;;;;;;;43.58;17.42;;;;;;;;;;5020896;28;20457;-57
2022/08/23 00:06:33;;;;;;;69.95;20.00;;;;;;;;;;5026506;28;20116;-56
2022/08/23 00:08:59;;;;;;;50.30;17.92;;;;;;;;;;5027461;28;20049;-56
2022/08/23 00:11:28;;;;;;;54.65;18.60;;;;;;;;;;5031066;28;20120;-57
2022/08/23 00:13:56;;;;;;;258.52;35.30;;;;;;;;;;5028501;28;20468;-57
2022/08/23 00:16:22;;;;;;;57.58;19.77;;;;;;;;;;5027392;28;20116;-56
2022/08/23 00:18:49;;;;;;;65.07;19.52;;;;;;;;;;5027465;28;20100;-57
2022/08/23 00:21:15;;;;;;;55.92;19.52;;;;;;;;;;5027203;28;20309;-57
2022/08/23 00:23:42;;;;;;;60.40;20.92;;;;;;;;;;5028419;28;20124;-58
2022/08/23 00:26:09;;;;;;;54.25;18.33;;;;;;;;;;5035343;28;20049;-57
2022/08/23 00:28:35;;;;;;;64.57;20.02;;;;;;;;;;5026276;28;20124;-57
2022/08/23 00:31:02;;;;;;;52.60;18.85;;;;;;;;;;5026477;28;20405;-57
2022/08/23 00:33:29;;;;;;;46.47;17.92;;;;;;;;;;5026224;28;20068;-57
2022/08/23 00:35:55;;;;;;;67.13;19.80;;;;;;;;;;5019468;28;20045;-57
2022/08/23 00:38:23;;;;;;;51.90;17.95;;;;;;;;;;5030972;28;20128;-58
2022/08/23 00:41:00;;;;;;;45.85;17.52;;;;;;;;;;5028788;28;20041;-57
2022/08/23 00:49:00;;;;;;;45.83;18.65;;;;;;;;;;5018946;28;20057;-58
2022/08/23 00:51:34;;;;;;;48.78;18.55;;;;;;;;;;5026657;28;20528;-58
2022/08/23 00:54:19;;;;;;;47.28;18.52;;;;;;;;;;5027048;28;20488;-58
2022/08/23 00:56:46;;;;;;;61.80;19.63;;;;;;;;;;5026766;28;20040;-58
2022/08/23 00:59:13;;;;;;;49.13;17.80;;;;;;;;;;5025991;28;20134;-57
2022/08/23 01:01:41;;;;;;;39.83;17.38;;;;;;;;;;5020234;28;20053;-58
2022/08/23 01:04:10;;;;;;;63.03;18.45;;;;;;;;;;5041745;28;20046;-58
2022/08/23 01:06:42;;;;;;;47.28;16.67;;;;;;;;;;5016149;28;20124;-57
2022/08/23 01:09:14;;;;;;;55.08;17.23;;;;;;;;;;5026250;28;20100;-57
2022/08/23 01:11:41;;;;;;;58.83;16.95;;;;;;;;;;5026497;28;20132;-58
2022/08/23 01:14:14;;;;;;;39.40;14.55;;;;;;;;;;5028106;28;20051;-57
2022/08/23 01:16:44;;;;;;;46.17;14.98;;;;;;;;;;5024938;28;20140;-57
2022/08/23 01:19:14;;;;;;;47.28;15.15;;;;;;;;;;5026175;28;20124;-57
2022/08/23 01:21:47;;;;;;;55.60;14.40;;;;;;;;;;5026333;28;20116;-58
2022/08/23 01:24:16;;;;;;;43.85;14.82;;;;;;;;;;5058267;28;20048;-57
2022/08/23 01:27:03;;;;;;;49.78;14.40;;;;;;;;;;5025747;28;20046;-56
2022/08/23 01:29:30;;;;;;;68.78;17.17;;;;;;;;;;5025136;28;20517;-57
2022/08/23 01:31:56;;;;;;;99.72;19.83;;;;;;;;;;5025612;28;20053;-61
2022/08/23 01:34:24;;;;;;;342.73;35.28;;;;;;;;;;5024703;28;20121;-61
2022/08/23 01:36:51;;;;;;;85.80;25.42;;;;;;;;;;5024905;28;20065;-60
2022/08/23 01:39:17;;;;;;;73.53;24.48;;;;;;;;;;5024481;28;20050;-63
2022/08/23 01:41:44;;;;;;;192.15;33.00;;;;;;;;;;5027123;28;20401;-61
2022/08/23 01:44:12;;;;;;;246.70;44.17;;;;;;;;;;5028037;28;20494;-61
2022/08/23 01:46:41;;;;;;;224.40;59.67;;;;;;;;;;5024688;28;20045;-60
2022/08/23 01:49:08;;;;;;;11.73;1.40;;;;;;;;;;5047188;28;20052;-60
2022/08/23 01:51:35;;;;;;;21.92;2.90;;;;;;;;;;5012844;28;20053;-59
2022/08/23 01:54:02;;;;;;;7.90;0.95;;;;;;;;;;5026181;28;20058;-60
2022/08/23 01:56:29;;;;;;;244.38;94.45;;;;;;;;;;5029464;28;20056;-62
2022/08/23 01:59:07;;;;;;;188.15;81.57;;;;;;;;;;5042369;28;20054;-61
2022/08/23 02:01:39;;;;;;;74.13;10.67;;;;;;;;;;5041921;28;20376;-62
2022/08/23 02:04:06;;;;;;;16.02;2.63;;;;;;;;;;5041797;28;20049;-62
2022/08/23 02:06:33;;;;;;;10.63;2.38;;;;;;;;;;5043065;28;20046;-62
2022/08/23 02:09:00;;;;;;;10.57;1.70;;;;;;;;;;5024589;28;20050;-61
2022/08/23 02:11:37;;;;;;;33.65;5.50;;;;;;;;;;5026978;28;20506;-61
2022/08/23 02:14:05;;;;;;;3.08;0.40;;;;;;;;;;5030001;28;20041;-61
2022/08/23 02:16:43;;;;;;;233.50;88.35;;;;;;;;;;5046595;28;20042;-61
2022/08/23 02:19:33;;;;;;;231.57;93.50;;;;;;;;;;5027064;28;20069;-60
2022/08/23 02:22:02;;;;;;;224.43;75.13;;;;;;;;;;5027866;28;20037;-61
2022/08/23 02:24:30;;;;;;;183.00;64.18;;;;;;;;;;5029488;28;20076;-61
2022/08/23 02:26:59;;;;;;;196.15;59.72;;;;;;;;;;5029241;28;20038;-62
2022/08/23 02:29:28;;;;;;;222.55;61.15;;;;;;;;;;5031579;28;20139;-61
2022/08/23 02:31:57;;;;;;;202.02;56.40;;;;;;;;;;5027963;28;20501;-61
2022/08/23 02:34:26;;;;;;;208.77;52.90;;;;;;;;;;5027765;28;20045;-60
2022/08/23 02:36:53;;;;;;;190.07;47.28;;;;;;;;;;5022432;28;20057;-61
2022/08/23 02:39:20;;;;;;;195.32;42.33;;;;;;;;;;5057475;28;20034;-61
2022/08/23 02:41:47;;;;;;;197.45;36.85;;;;;;;;;;5044941;28;20080;-61
2022/08/23 02:44:14;;;;;;;33.10;3.75;;;;;;;;;;5031856;28;20132;-61
2022/08/23 02:46:41;;;;;;;4.72;0.73;;;;;;;;;;5027551;28;20045;-62
2022/08/23 02:49:08;;;;;;;8.85;1.65;;;;;;;;;;5028689;28;20400;-60
2022/08/23 02:51:35;;;;;;;18.17;3.67;;;;;;;;;;5027728;28;20103;-63
2022/08/23 02:54:02;;;;;;;8.70;1.08;;;;;;;;;;5029098;28;20117;-61
2022/08/23 02:56:29;;;;;;;13.68;1.85;;;;;;;;;;5028355;28;20042;-60
2022/08/23 02:58:55;;;;;;;20.45;2.90;;;;;;;;;;5045054;28;20038;-60
2022/08/23 03:01:33;;;;;;;10.98;2.20;;;;;;;;;;5040727;28;20128;-63
2022/08/23 03:04:12;;;;;;;21.75;3.60;;;;;;;;;;5040386;28;20041;-63
2022/08/23 03:06:39;;;;;;;7.82;2.00;;;;;;;;;;5042313;28;20058;-60
2022/08/23 03:09:07;;;;;;;16.85;2.42;;;;;;;;;;5027573;28;20044;-60
2022/08/23 03:11:34;;;;;;;23.90;3.85;;;;;;;;;;5030973;28;20045;-60
2022/08/23 03:14:00;;;;;;;6.15;1.20;;;;;;;;;;5025844;28;20120;-60
2022/08/23 03:16:28;;;;;;;6.90;1.42;;;;;;;;;;5028232;28;20049;-59
2022/08/23 03:18:55;;;;;;;19.90;3.22;;;;;;;;;;5023981;28;20038;-60
2022/08/23 03:21:21;;;;;;;13.25;3.25;;;;;;;;;;5015351;28;20037;-60
2022/08/23 03:23:49;;;;;;;14.95;2.10;;;;;;;;;;5030935;28;20033;-63
2022/08/23 03:26:15;;;;;;;23.00;2.92;;;;;;;;;;5026934;28;20129;-62
2022/08/23 03:28:43;;;;;;;5.70;0.75;;;;;;;;;;5030211;28;20413;-62
2022/08/23 03:31:11;;;;;;;7.00;1.60;;;;;;;;;;5023324;28;20380;-62
2022/08/23 03:33:46;;;;;;;12.70;2.65;;;;;;;;;;5024084;28;20115;-62
2022/08/23 03:36:13;;;;;;;5.63;1.17;;;;;;;;;;5021533;28;20502;-61
2022/08/23 03:38:40;;;;;;;19.15;2.58;;;;;;;;;;5028535;28;20041;-61
2022/08/23 03:41:08;;;;;;;27.73;3.05;;;;;;;;;;5048915;28;20052;-61
2022/08/23 03:43:35;;;;;;;9.13;1.85;;;;;;;;;;5023039;28;20038;-61
2022/08/23 03:46:02;;;;;;;9.30;2.00;;;;;;;;;;5033466;28;20046;-61
2022/08/23 03:48:29;;;;;;;28.70;5.00;;;;;;;;;;5040163;28;20145;-61
2022/08/23 03:50:57;;;;;;;60.65;4.20;;;;;;;;;;5027607;28;20100;-59
2022/08/23 03:53:23;;;;;;;16.83;3.22;;;;;;;;;;5031159;28;20076;-60
2022/08/23 03:55:52;;;;;;;18.77;3.20;;;;;;;;;;5023740;28;20046;-60
2022/08/23 03:58:20;;;;;;;8.93;2.35;;;;;;;;;;5022030;28;20041;-60
2022/08/23 04:00:47;;;;;;;19.73;3.60;;;;;;;;;;5054725;28;20533;-58
2022/08/23 04:03:13;;;;;;;15.65;2.65;;;;;;;;;;5059360;28;20491;-59
2022/08/23 04:06:01;;;;;;;11.60;1.77;;;;;;;;;;5028020;28;20052;-58
2022/08/23 04:08:29;;;;;;;24.02;5.47;;;;;;;;;;5026903;28;20470;-59
2022/08/23 04:11:01;;;;;;;8.30;1.35;;;;;;;;;;5025032;28;20701;-60
2022/08/23 04:13:28;;;;;;;10.20;2.00;;;;;;;;;;5023988;28;20576;-60
2022/08/23 04:15:55;;;;;;;21.67;3.28;;;;;;;;;;5022534;28;20042;-60
2022/08/23 04:18:22;;;;;;;18.90;2.85;;;;;;;;;;5043906;28;20038;-60
2022/08/23 04:20:49;;;;;;;15.68;2.78;;;;;;;;;;5043286;28;20092;-60
2022/08/23 04:23:19;;;;;;;5.68;2.03;;;;;;;;;;5027056;28;20037;-60
2022/08/23 04:25:50;;;;;;;11.35;2.08;;;;;;;;;;5026728;28;20529;-60
2022/08/23 04:28:19;;;;;;;24.02;4.25;;;;;;;;;;5024779;28;20049;-60
2022/08/23 04:30:46;;;;;;;184.70;69.93;;;;;;;;;;5057070;28;20050;-60
2022/08/23 04:33:13;;;;;;;178.57;74.30;;;;;;;;;;5033384;28;20088;-60
2022/08/23 04:35:44;;;;;;;210.20;73.65;;;;;;;;;;5021156;28;20038;-60
2022/08/23 04:38:11;;;;;;;159.57;63.38;;;;;;;;;;5028581;28;20056;-60
2022/08/23 04:43:39;;;;;;;184.07;69.75;;;;;;;;;;5044321;28;20100;-60
2022/08/23 04:46:06;;;;;;;198.05;71.95;;;;;;;;;;5024545;28;20044;-60
2022/08/23 04:48:34;;;;;;;164.23;65.00;;;;;;;;;;5036012;28;20041;-60
2022/08/23 04:51:01;;;;;;;157.93;62.85;;;;;;;;;;5024963;28;20128;-60
2022/08/23 04:53:34;;;;;;;174.73;68.05;;;;;;;;;;5028557;28;20048;-59
2022/08/23 04:56:22;;;;;;;159.70;64.28;;;;;;;;;;4988646;28;20046;-63
2022/08/23 04:58:49;;;;;;;188.43;68.75;;;;;;;;;;4967542;28;20146;-61
2022/08/23 05:01:16;;;;;;;165.60;63.95;;;;;;;;;;4970659;28;20406;-57
2022/08/23 05:03:44;;;;;;;145.07;60.33;;;;;;;;;;4968269;28;20150;-61
2022/08/23 05:06:11;;;;;;;155.25;62.08;;;;;;;;;;4946790;28;65201;-60
2022/08/23 05:08:38;;;;;;;157.07;66.45;;;;;;;;;;4966327;28;20046;-60
2022/08/23 05:11:08;;;;;;;149.30;62.55;;;;;;;;;;4982139;28;20047;-58
2022/08/23 05:13:35;;;;;;;167.18;62.53;;;;;;;;;;4960527;28;20053;-58
2022/08/23 05:16:04;;;;;;;134.35;55.95;;;;;;;;;;4971917;28;20034;-57
2022/08/23 05:18:34;;;;;;;136.15;59.53;;;;;;;;;;4979216;28;20105;-57
2022/08/23 05:21:01;;;;;;;149.25;59.72;;;;;;;;;;4986231;28;20035;-58
2022/08/23 05:23:28;;;;;;;130.20;57.00;;;;;;;;;;4972219;28;20415;-58
2022/08/23 05:26:04;;;;;;;133.98;54.75;;;;;;;;;;4963311;28;20497;-59
2022/08/23 05:28:35;;;;;;;115.47;49.53;;;;;;;;;;4969488;28;20165;-60
2022/08/23 05:31:05;;;;;;;95.20;46.25;;;;;;;;;;4971721;28;20048;-59
2022/08/23 05:33:43;;;;;;;115.28;49.35;;;;;;;;;;4999275;28;20107;-59
2022/08/23 05:36:11;;;;;;;107.80;45.42;;;;;;;;;;5054238;28;20508;-59
2022/08/23 05:38:38;;;;;;;131.50;48.30;;;;;;;;;;5022538;28;20042;-60
2022/08/23 05:41:06;;;;;;;89.80;39.90;;;;;;;;;;5018911;28;20037;-60
2022/08/23 05:43:33;;;;;;;91.68;42.10;;;;;;;;;;5021470;28;20045;-60
2022/08/23 05:46:03;;;;;;;85.80;42.33;;;;;;;;;;5042178;28;20446;-60
2022/08/23 05:48:33;;;;;;;96.32;47.13;;;;;;;;;;5043120;28;20050;-60
2022/08/23 05:51:18;;;;;;;92.32;42.33;;;;;;;;;;5024681;28;20477;-60
2022/08/23 05:53:45;;;;;;;106.35;40.95;;;;;;;;;;5030281;28;20518;-60
2022/08/23 05:56:14;;;;;;;122.10;48.72;;;;;;;;;;5028685;28;20134;-60
2022/08/23 05:58:41;;;;;;;119.05;46.38;;;;;;;;;;5030830;28;20505;-60
2022/08/23 06:01:08;;;;;;;101.80;45.50;;;;;;;;;;5061852;28;20103;-60
2022/08/23 06:03:35;;;;;;;104.22;42.83;;;;;;;;;;5028182;28;20050;-60
2022/08/23 06:06:02;;;;;;;98.78;41.80;;;;;;;;;;5025903;28;20507;-60
2022/08/23 06:08:29;;;;;;;96.82;41.13;;;;;;;;;;5064999;28;20111;-60
2022/08/23 06:11:22;;;;;;;87.75;39.67;;;;;;;;;;5031758;28;20388;-60
2022/08/23 06:13:52;;;;;;;67.47;34.88;;;;;;;;;;5053443;28;20046;-60
2022/08/23 06:16:20;;;;;;;79.13;36.65;;;;;;;;;;5020370;28;20037;-60
2022/08/23 06:18:47;;;;;;;85.70;35.38;;;;;;;;;;5018688;28;20076;-60
2022/08/23 06:21:33;;;;;;;85.30;40.72;;;;;;;;;;5019347;28;20053;-60
2022/08/23 06:24:00;;;;;;;83.75;38.13;;;;;;;;;;5021448;28;20034;-60
2022/08/23 06:26:32;;;;;;;63.35;33.75;;;;;;;;;;5029481;28;20034;-60
2022/08/23 06:29:02;;;;;;;92.05;38.70;;;;;;;;;;5056653;28;20084;-60
2022/08/23 06:31:45;;;;;;;74.68;32.30;;;;;;;;;;5027648;28;20650;-60
2022/08/23 06:34:14;;;;;;;76.03;37.45;;;;;;;;;;5056184;28;20045;-61
2022/08/23 06:37:06;;;;;;;83.38;36.90;;;;;;;;;;5027547;28;20049;-60
2022/08/23 06:39:57;;;;;;;90.95;38.80;;;;;;;;;;5025576;28;20041;-60
2022/08/23 06:42:45;;;;;;;87.45;41.42;;;;;;;;;;5025986;28;20141;-61
2022/08/23 06:45:16;;;;;;;73.70;36.78;;;;;;;;;;5027515;28;20088;-61
2022/08/23 06:47:47;;;;;;;82.78;36.30;;;;;;;;;;5030519;28;20089;-60
2022/08/23 06:50:13;;;;;;;82.60;37.58;;;;;;;;;;5020012;28;20058;-60
2022/08/23 06:52:58;;;;;;;87.15;40.45;;;;;;;;;;5031205;28;20056;-60
2022/08/23 06:55:53;;;;;;;85.55;38.78;;;;;;;;;;5021386;28;20049;-60
2022/08/23 06:58:36;;;;;;;89.38;39.83;;;;;;;;;;5026725;28;20052;-60
2022/08/23 07:01:15;;;;;;;73.45;39.88;;;;;;;;;;5027264;28;20069;-60
2022/08/23 07:04:07;;;;;;;70.75;35.97;;;;;;;;;;5023904;28;20084;-60
2022/08/23 07:07:03;;;;;;;84.38;36.35;;;;;;;;;;5021444;28;20049;-60
2022/08/23 07:09:36;;;;;;;;;;;;;;;;;;5056692;28;20033;-60
2022/08/23 07:12:03;;;;;;;63.05;28.50;;;;;;;;;;5026908;28;20305;-61
2022/08/23 07:14:31;;;;;;;66.05;28.08;;;;;;;;;;5030640;28;20398;-61
2022/08/23 07:17:00;;;;;;;56.35;25.70;;;;;;;;;;5027944;28;20129;-61
2022/08/23 07:19:27;;;;;;;44.35;22.55;;;;;;;;;;5044840;28;20410;-61
2022/08/23 07:21:55;;;;;;;51.60;24.00;;;;;;;;;;5044204;28;20042;-61
2022/08/23 07:24:22;;;;;;;40.08;19.98;;;;;;;;;;5011566;28;20061;-61
2022/08/23 07:26:53;;;;;;;47.83;22.02;;;;;;;;;;5026714;28;20525;-61
2022/08/23 07:29:21;;;;;;;50.40;19.92;;;;;;;;;;5028248;28;20041;-61
2022/08/23 07:31:50;;;;;;;41.72;18.88;;;;;;;;;;5026010;28;20060;-60
2022/08/23 07:34:17;;;;;;;40.28;19.25;;;;;;;;;;5027881;28;20042;-61
2022/08/23 07:36:44;;;;;;;44.83;19.45;;;;;;;;;;5026120;28;20048;-61
2022/08/23 07:39:12;;;;;;;37.92;18.15;;;;;;;;;;5026722;28;20041;-61
2022/08/23 07:41:39;;;;;;;45.13;17.13;;;;;;;;;;5062575;28;20054;-61
2022/08/23 07:44:08;;;;;;;52.83;17.90;;;;;;;;;;5027767;28;20033;-62
2022/08/23 07:46:37;;;;;;;34.55;16.10;;;;;;;;;;5024945;28;20042;-62
2022/08/23 07:49:03;;;;;;;55.25;19.67;;;;;;;;;;5030972;28;20052;-62
2022/08/23 07:51:34;;;;;;;45.50;17.50;;;;;;;;;;5025516;28;20136;-62
2022/08/23 07:54:03;;;;;;;42.53;17.30;;;;;;;;;;5027490;28;20160;-62
2022/08/23 07:56:30;;;;;;;47.90;16.30;;;;;;;;;;5052033;28;20063;-61
2022/08/23 07:59:04;;;;;;;30.00;13.48;;;;;;;;;;5026047;28;20050;-63
2022/08/23 08:01:33;;;;;;;33.63;13.40;;;;;;;;;;5027337;28;20033;-62
2022/08/23 08:04:01;;;;;;;44.80;14.90;;;;;;;;;;5020843;28;20072;-62
2022/08/23 08:06:37;;;;;;;31.08;12.05;;;;;;;;;;5012512;28;20136;-63
2022/08/23 08:09:04;;;;;;;35.95;12.25;;;;;;;;;;5046452;28;20053;-62
2022/08/23 08:11:32;;;;;;;44.03;13.00;;;;;;;;;;5029270;28;20046;-63
2022/08/23 08:14:03;;;;;;;35.33;12.75;;;;;;;;;;5002376;28;20049;-63
2022/08/23 08:16:32;;;;;;;34.85;12.45;;;;;;;;;;5042931;28;20178;-63
2022/08/23 08:19:00;;;;;;;34.45;11.68;;;;;;;;;;5022741;28;20037;-62
2022/08/23 08:21:50;;;;;;;37.60;12.40;;;;;;;;;;5016127;28;20057;-63
2022/08/23 08:24:26;;;;;;;32.60;11.50;;;;;;;;;;5034194;28;20143;-62
2022/08/23 08:26:59;;;;;;;51.05;13.57;;;;;;;;;;5037503;28;20046;-62
2022/08/23 08:29:26;;;;;;;33.22;10.13;;;;;;;;;;5043413;28;20052;-63
2022/08/23 08:31:53;;;;;;;31.27;11.05;;;;;;;;;;5007857;28;20043;-62
2022/08/23 08:34:20;;;;;;;41.25;12.55;;;;;;;;;;5007927;28;20538;-62
2022/08/23 08:36:48;;;;;;;43.22;12.27;;;;;;;;;;5010468;28;20064;-62
2022/08/23 08:39:22;;;;;;;42.80;12.30;;;;;;;;;;5006833;28;20080;-62
2022/08/23 08:42:07;;;;;;;65.00;15.45;;;;;;;;;;5008006;28;20137;-59
2022/08/23 08:44:40;;;;;;;49.97;13.52;;;;;;;;;;4994340;28;20144;-51
2022/08/23 08:47:26;;;;;;;69.97;19.83;;;;;;;;;;5017286;28;20537;-63
2022/08/23 08:49:55;;;;;;;49.47;13.23;;;;;;;;;;5023104;28;20053;-64
2022/08/23 08:52:24;;;;;;;44.42;12.38;;;;;;;;;;5006434;28;20049;-64
2022/08/23 08:54:58;;;;;;;48.13;13.23;;;;;;;;;;5008763;28;20069;-64
2022/08/23 08:57:24;;;;;;;50.05;13.05;;;;;;;;;;5010193;28;20041;-64
2022/08/23 08:59:57;;;;;;;260.80;43.92;;;;;;;;;;5012898;28;20051;-64
2022/08/23 09:02:26;;;;;;;32.17;12.20;;;;;;;;;;5024922;28;20073;-64
2022/08/23 09:05:04;;;;;;;48.95;17.17;;;;;;;;;;5046929;28;20054;-64
2022/08/23 09:07:50;;;;;;;46.67;13.13;;;;;;;;;;5017966;28;20053;-65
2022/08/23 09:10:31;;;;;;;57.15;14.52;;;;;;;;;;5018500;28;20485;-64
2022/08/23 09:13:31;;;;;;;37.08;9.60;;;;;;;;;;5017148;28;20486;-64
2022/08/23 09:16:07;;;;;;;41.42;11.38;;;;;;;;;;4926504;28;20063;-64
2022/08/23 09:18:35;;;;;;;53.17;11.00;;;;;;;;;;4938587;28;20074;-64
2022/08/23 09:21:04;;;;;;;51.75;10.40;;;;;;;;;;4941689;28;20126;-63
2022/08/23 09:23:44;;;;;;;59.08;11.68;;;;;;;;;;4966094;28;20051;-64
2022/08/23 09:26:23;;;;;;;49.90;10.40;;;;;;;;;;4966640;28;20054;-64
2022/08/23 09:28:54;;;;;;;54.42;10.02;;;;;;;;;;4962670;28;20050;-64
2022/08/23 09:31:40;;;;;;;61.35;11.15;;;;;;;;;;4943460;28;20685;-64
2022/08/23 09:34:10;;;;;;;45.88;10.00;;;;;;;;;;4956659;28;20558;-64
2022/08/23 09:36:47;;;;;;;35.28;9.70;;;;;;;;;;4940659;28;20135;-64
2022/08/23 09:39:29;;;;;;;38.42;8.23;;;;;;;;;;4965189;28;20059;-64
2022/08/23 09:42:02;;;;;;;45.85;9.13;;;;;;;;;;4964478;28;20050;-63
2022/08/23 09:44:35;;;;;;;48.40;9.38;;;;;;;;;;4962998;28;20051;-63
2022/08/23 09:47:02;;;;;;;;;;;;;;;;;;4936630;29;20047;-63
2022/08/23 09:49:29;;;;;;;38.35;7.95;;;;;;;;;;4944765;28;19922;-63
2022/08/23 09:52:11;;;;;;;45.50;8.80;;;;;;;;;;4977762;28;20099;-63
2022/08/23 09:54:58;;;;;;;42.40;8.38;;;;;;;;;;5024663;28;20621;-63
2022/08/23 09:57:26;;;;;;;47.20;9.57;;;;;;;;;;5023715;28;20517;-63
2022/08/23 09:59:55;;;;;;;43.50;8.95;;;;;;;;;;5025493;28;20510;-63
2022/08/23 10:02:26;;;;;;;;;;;;;;;;;;5022792;28;20088;-63
2022/08/23 10:04:53;;;;;;;48.97;9.32;;;;;;;;;;5025744;28;20346;-62
2022/08/23 10:07:37;;;;;;;38.58;8.07;;;;;;;;;;5015104;28;20052;-63
2022/08/23 10:10:23;;;;;;;42.30;9.05;;;;;;;;;;5047414;28;20483;-62
2022/08/23 10:12:53;;;;;;;44.22;9.07;;;;;;;;;;5046026;28;20509;-63
2022/08/23 10:15:32;;;;;;;64.90;10.43;;;;;;;;;;5048100;28;20076;-63
2022/08/23 10:18:06;;;;;;;50.50;8.68;;;;;;;;;;5024724;28;20052;-64
2022/08/23 10:20:40;;;;;;;63.15;8.68;;;;;;;;;;5014492;28;20054;-64
2022/08/23 10:23:36;;;;;;;51.37;8.33;;;;;;;;;;5040623;28;20149;-64
2022/08/23 10:26:06;;;;;;;41.63;7.88;;;;;;;;;;4970988;28;20069;-64
2022/08/23 10:31:34;;;;;;;30.95;6.28;;;;;;;;;;4987062;28;20069;-63
2022/08/23 10:34:19;;;;;;;43.60;7.68;;;;;;;;;;4980509;28;20507;-63
2022/08/23 10:36:58;;;;;;;39.60;7.00;;;;;;;;;;4982700;28;20510;-64
2022/08/23 10:39:27;;;;;;;49.35;8.38;;;;;;;;;;4990025;28;20050;-64
2022/08/23 10:42:00;;;;;;;68.88;10.38;;;;;;;;;;4990937;28;20062;-63
2022/08/23 10:44:35;;;;;;;44.95;6.95;;;;;;;;;;4994516;28;20161;-61
2022/08/23 10:47:14;;;;;;;61.50;9.40;;;;;;;;;;4991670;28;20049;-61
2022/08/23 10:49:42;;;;;;;40.60;6.18;;;;;;;;;;4981897;28;20062;-61
2022/08/23 10:52:13;;;;;;;53.22;8.82;;;;;;;;;;4961465;28;20049;-61
2022/08/23 10:54:58;;;;;;;51.85;7.32;;;;;;;;;;4956544;28;20055;-61
2022/08/23 10:57:30;;;;;;;60.28;9.52;;;;;;;;;;4966632;28;20042;-60
2022/08/23 10:59:58;;;;;;;52.05;7.50;;;;;;;;;;4987682;28;20181;-61
2022/08/23 11:02:30;;;;;;;47.85;7.40;;;;;;;;;;4981241;28;20502;-61
2022/08/23 11:05:21;;;;;;;50.83;8.20;;;;;;;;;;4990821;28;20050;-61
2022/08/23 11:08:11;;;;;;;76.20;10.07;;;;;;;;;;4984458;28;20500;-60
2022/08/23 11:10:46;;;;;;;38.80;6.47;;;;;;;;;;4980870;28;20042;-61
2022/08/23 11:13:29;;;;;;;41.08;7.47;;;;;;;;;;4983711;28;20046;-61
2022/08/23 11:15:56;;;;;;;64.13;9.85;;;;;;;;;;4980700;28;20407;-61
2022/08/23 11:18:32;;;;;;;46.08;8.02;;;;;;;;;;4985792;28;20611;-61
2022/08/23 11:21:02;;;;;;;49.75;8.32;;;;;;;;;;4980400;28;20487;-61
2022/08/23 11:23:37;;;;;;;61.05;8.73;;;;;;;;;;4979421;28;56749;-62
2022/08/23 11:26:06;;;;;;;55.95;8.57;;;;;;;;;;4988998;28;20038;-62
2022/08/23 11:28:42;;;;;;;60.35;8.98;;;;;;;;;;4931912;28;124701;-62
2022/08/23 11:31:24;;;;;;;58.58;8.98;;;;;;;;;;4989890;28;20050;-62
2022/08/23 11:34:03;;;;;;;49.75;7.90;;;;;;;;;;5001454;28;20045;-62
2022/08/23 11:36:32;;;;;;;45.40;7.93;;;;;;;;;;5006754;28;20053;-62
2022/08/23 11:39:01;;;;;;;42.33;6.82;;;;;;;;;;4980253;28;20042;-63
2022/08/23 11:41:29;;;;;;;55.97;8.63;;;;;;;;;;4999818;28;20069;-62
2022/08/23 11:44:16;;;;;;;53.25;9.35;;;;;;;;;;5008426;28;20096;-62
2022/08/23 11:46:49;;;;;;;58.35;8.88;;;;;;;;;;5006511;28;20046;-62
2022/08/23 11:49:19;;;;;;;51.35;8.00;;;;;;;;;;4994342;28;20053;-63
2022/08/23 11:51:51;;;;;;;49.65;7.85;;;;;;;;;;5020960;28;20049;-62
2022/08/23 11:54:24;;;;;;;66.18;9.52;;;;;;;;;;5028985;28;20052;-61
2022/08/23 11:57:03;;;;;;;76.95;10.25;;;;;;;;;;5029013;28;20553;-62
2022/08/23 11:59:33;;;;;;;58.70;9.27;;;;;;;;;;5025595;28;20084;-60
2022/08/23 12:02:46;;;;;;;66.03;10.75;;;;;;;;;;5013543;28;20046;-63
2022/08/23 12:05:16;;;;;;;63.63;9.75;;;;;;;;;;4950832;28;20059;-62
2022/08/23 12:07:51;;;;;;;62.10;10.50;;;;;;;;;;4954748;28;20089;-62
2022/08/23 12:10:22;;;;;;;66.57;9.70;;;;;;;;;;4953697;28;20513;-62
2022/08/23 12:13:21;;;;;;;59.55;9.68;;;;;;;;;;4958261;28;20047;-62
2022/08/23 12:16:06;;;;;;;47.67;8.90;;;;;;;;;;4920602;29;20465;-63
2022/08/23 12:18:42;;;;;;;82.03;13.50;;;;;;;;;;4929690;29;20056;-62
2022/08/23 12:21:19;;;;;;;69.85;9.30;;;;;;;;;;4929515;29;20050;-63
2022/08/23 12:23:49;;;;;;;76.65;11.90;;;;;;;;;;4929205;29;20167;-63
2022/08/23 12:26:27;;;;;;;55.42;8.50;;;;;;;;;;4931722;29;20180;-62
2022/08/23 12:29:03;;;;;;;78.68;10.02;;;;;;;;;;4929852;29;20501;-62
2022/08/23 12:31:45;;;;;;;75.05;9.82;;;;;;;;;;4931522;29;20078;-63
2022/08/23 12:34:24;;;;;;;65.40;9.23;;;;;;;;;;4925605;29;20148;-63
2022/08/23 12:36:53;;;;;;;58.88;10.52;;;;;;;;;;4962468;28;20122;-62
2022/08/23 12:39:43;;;;;;;70.75;9.63;;;;;;;;;;4965968;28;20050;-63
2022/08/23 12:42:27;;;;;;;51.42;9.10;;;;;;;;;;4969008;28;20130;-63
2022/08/23 12:45:12;;;;;;;79.47;11.07;;;;;;;;;;4968242;28;20065;-63
2022/08/23 12:47:43;;;;;;;63.65;9.88;;;;;;;;;;4973637;28;20079;-62
2022/08/23 12:50:12;;;;;;;64.72;9.32;;;;;;;;;;4982076;28;20532;-63
2022/08/23 12:52:40;;;;;;;70.63;9.13;;;;;;;;;;5026347;28;20057;-63
2022/08/23 12:55:14;;;;;;;74.72;10.95;;;;;;;;;;5026420;28;20116;-63
2022/08/23 12:57:42;;;;;;;57.67;8.05;;;;;;;;;;5026157;28;20041;-62
2022/08/23 13:00:12;;;;;;;65.22;9.32;;;;;;;;;;5026063;28;20084;-63
2022/08/23 13:02:46;;;;;;;78.40;11.20;;;;;;;;;;5029257;28;20498;-63
2022/08/23 13:05:16;;;;;;;45.95;8.45;;;;;;;;;;5031555;28;20034;-62
2022/08/23 13:07:43;;;;;;;65.95;10.48;;;;;;;;;;5026283;28;20089;-63
2022/08/23 13:10:10;;;;;;;63.85;9.90;;;;;;;;;;5026398;28;20045;-63
2022/08/23 13:12:36;;;;;;;59.95;9.85;;;;;;;;;;5026152;28;20112;-62
2022/08/23 13:15:04;;;;;;;71.28;11.32;;;;;;;;;;5026608;28;20562;-62
2022/08/23 13:17:38;;;;;;;76.80;10.90;;;;;;;;;;5030932;28;20128;-63
2022/08/23 13:20:05;;;;;;;51.85;8.05;;;;;;;;;;5029742;28;20073;-62
2022/08/23 13:22:33;;;;;;;63.97;10.60;;;;;;;;;;5025945;28;20052;-62
2022/08/23 13:24:59;;;;;;;50.67;8.38;;;;;;;;;;5026400;28;20061;-63
2022/08/23 13:27:46;;;;;;;66.82;9.35;;;;;;;;;;5015918;28;20033;-62
2022/08/23 13:30:13;;;;;;;76.57;11.02;;;;;;;;;;5026537;28;20065;-63
2022/08/23 13:32:46;;;;;;;88.07;11.77;;;;;;;;;;5028907;28;20044;-63
2022/08/23 13:35:28;;;;;;;96.15;11.82;;;;;;;;;;5022625;28;20049;-63
2022/08/23 13:38:15;;;;;;;71.45;9.90;;;;;;;;;;5025421;28;20557;-62
2022/08/23 13:40:49;;;;;;;82.28;11.80;;;;;;;;;;5025516;28;20056;-62
2022/08/23 13:43:20;;;;;;;74.72;10.00;;;;;;;;;;5025026;28;20046;-63
2022/08/23 13:45:48;;;;;;;86.00;11.82;;;;;;;;;;5025480;28;20099;-63
2022/08/23 13:48:18;;;;;;;56.35;9.18;;;;;;;;;;5025683;28;20514;-63
2022/08/23 13:50:45;;;;;;;93.57;11.45;;;;;;;;;;5028287;28;20041;-62
2022/08/23 13:53:12;;;;;;;90.10;11.65;;;;;;;;;;5028433;28;20116;-63
2022/08/23 13:55:51;;;;;;;70.80;10.35;;;;;;;;;;5025782;28;20096;-63
2022/08/23 13:58:32;;;;;;;78.57;11.38;;;;;;;;;;5025059;28;20052;-62
2022/08/23 14:00:59;;;;;;;81.10;10.90;;;;;;;;;;5026297;28;20566;-62
2022/08/23 14:03:27;;;;;;;98.10;13.70;;;;;;;;;;5025395;28;20087;-62
2022/08/23 14:05:54;;;;;;;92.28;12.93;;;;;;;;;;5027509;28;20100;-63
2022/08/23 14:08:20;;;;;;;81.72;12.85;;;;;;;;;;5029077;28;20044;-63
2022/08/23 14:10:47;;;;;;;83.50;10.88;;;;;;;;;;5027400;28;20141;-62
2022/08/23 14:13:14;;;;;;;75.25;11.18;;;;;;;;;;5029643;28;20041;-63
2022/08/23 14:15:42;;;;;;;82.88;9.55;;;;;;;;;;5029232;28;20045;-63
2022/08/23 14:18:29;;;;;;;88.93;10.57;;;;;;;;;;5029169;28;20037;-63
2022/08/23 14:20:55;;;;;;;93.82;11.25;;;;;;;;;;5030784;28;20520;-63
2022/08/23 14:23:22;;;;;;;85.32;12.73;;;;;;;;;;5033030;28;20037;-62
2022/08/23 14:25:49;;;;;;;83.93;12.40;;;;;;;;;;5029198;28;20135;-63
2022/08/23 14:28:17;;;;;;;82.15;12.35;;;;;;;;;;5029337;28;20124;-63
2022/08/23 14:30:44;;;;;;;79.15;10.55;;;;;;;;;;5029056;28;20052;-63
2022/08/23 14:33:11;;;;;;;98.35;11.57;;;;;;;;;;5028985;28;20570;-63
2022/08/23 14:35:38;;;;;;;87.55;10.70;;;;;;;;;;5024888;28;20041;-63
2022/08/23 14:38:04;;;;;;;88.50;12.32;;;;;;;;;;5030270;28;20041;-63
2022/08/23 14:40:31;;;;;;;97.70;13.68;;;;;;;;;;5028889;28;20045;-63
2022/08/23 14:42:58;;;;;;;77.78;11.35;;;;;;;;;;5029068;28;20037;-63
2022/08/23 14:45:24;;;;;;;91.38;12.88;;;;;;;;;;5029006;28;20073;-63
2022/08/23 14:47:51;;;;;;;107.72;13.38;;;;;;;;;;5030630;28;20046;-63
2022/08/23 14:50:18;;;;;;;77.35;9.98;;;;;;;;;;5032338;28;20133;-63
2022/08/23 14:52:45;;;;;;;90.15;12.15;;;;;;;;;;5028574;28;20108;-62
2022/08/23 14:55:13;;;;;;;94.18;12.73;;;;;;;;;;5028649;28;20486;-63
2022/08/23 14:57:40;;;;;;;81.25;12.50;;;;;;;;;;5028576;28;20069;-63
2022/08/23 15:00:07;;;;;;;76.10;11.63;;;;;;;;;;5028657;28;20041;-63